Time;durP1;ratioP1;P1;durP2;ratioP2;P2;SDS_P1;SDS_P2;PMS_P1;PMS_P2;Temp;Humidity;BMP_temperature;BMP_pressure;BME280_temperature;BME280_humidity;BME280_pressure;Samples;Min_cycle;Max_cycle;Signal;HPM_P1;HPM_P2
2023/01/30 00:01:21;;;;;;;0.43;0.43;;;;;;;;;;5065281;28;20401;-91
2023/01/30 00:06:36;;;;;;;2.00;0.67;;;;;;;;;;5042155;28;20690;-90
2023/01/30 00:12:02;;;;;;;0.07;0.07;;;;;;;;;;5016618;28;20192;-93
2023/01/30 00:14:38;;;;;;;0.10;0.10;;;;;;;;;;5034449;28;20215;-92
2023/01/30 00:17:07;;;;;;;0.30;0.30;;;;;;;;;;5035112;28;20250;-92
2023/01/30 00:19:37;;;;;;;0.87;0.87;;;;;;;;;;5034633;28;20208;-92
2023/01/30 00:22:09;;;;;;;0.40;0.40;;;;;;;;;;5035533;28;20588;-92
2023/01/30 00:24:42;;;;;;;0.73;0.73;;;;;;;;;;5035407;28;20210;-91
2023/01/30 00:27:11;;;;;;;0.20;0.20;;;;;;;;;;5033593;28;20200;-91
2023/01/30 00:29:51;;;;;;;0.60;0.60;;;;;;;;;;5034239;28;20207;-91
2023/01/30 00:32:31;;;;;;;0.33;0.33;;;;;;;;;;5032142;28;20269;-89
2023/01/30 00:35:06;;;;;;;0.20;0.20;;;;;;;;;;5031904;28;20200;-90
2023/01/30 00:37:38;;;;;;;2.50;0.97;;;;;;;;;;5040155;28;20280;-89
2023/01/30 00:40:12;;;;;;;0.00;0.00;;;;;;;;;;5051473;28;20199;-89
2023/01/30 00:48:23;;;;;;;0.40;0.37;;;;;;;;;;5051208;28;20268;-88
2023/01/30 00:51:02;;;;;;;0.00;0.00;;;;;;;;;;5051741;28;20309;-88
2023/01/30 00:53:33;;;;;;;1.30;1.20;;;;;;;;;;5051760;28;20206;-89
2023/01/30 00:56:04;;;;;;;0.20;0.20;;;;;;;;;;5052334;28;20568;-89
2023/01/30 00:58:32;;;;;;;0.33;0.30;;;;;;;;;;5052302;28;20200;-90
2023/01/30 01:01:01;;;;;;;0.20;0.20;;;;;;;;;;5053959;28;20266;-89
2023/01/30 01:03:31;;;;;;;0.10;0.10;;;;;;;;;;5052818;28;20199;-91
2023/01/30 01:06:02;;;;;;;0.20;0.20;;;;;;;;;;5054225;28;20203;-90
2023/01/30 01:08:34;;;;;;;0.23;0.23;;;;;;;;;;5054798;28;20207;-91
2023/01/30 01:11:01;;;;;;;0.47;0.47;;;;;;;;;;5072289;28;20207;-89
2023/01/30 01:13:35;;;;;;;0.07;0.07;;;;;;;;;;5072533;28;20225;-91
2023/01/30 01:16:04;;;;;;;0.50;0.50;;;;;;;;;;5067827;28;20202;-89
2023/01/30 01:18:35;;;;;;;0.10;0.10;;;;;;;;;;5067091;28;20223;-89
2023/01/30 01:21:04;;;;;;;0.00;0.00;;;;;;;;;;5068814;28;20234;-89
2023/01/30 01:23:36;;;;;;;0.20;0.20;;;;;;;;;;5070543;28;20191;-90
2023/01/30 01:26:06;;;;;;;0.07;0.07;;;;;;;;;;5052380;28;20211;-91
2023/01/30 01:28:33;;;;;;;0.10;0.10;;;;;;;;;;5051641;28;20261;-90
2023/01/30 01:31:03;;;;;;;0.03;0.03;;;;;;;;;;5051300;28;20191;-90
2023/01/30 01:33:33;;;;;;;0.30;0.30;;;;;;;;;;5051802;28;20203;-90
2023/01/30 01:36:03;;;;;;;0.10;0.10;;;;;;;;;;5051101;28;20199;-91
2023/01/30 01:38:33;;;;;;;2.10;0.50;;;;;;;;;;5034273;28;20212;-89
2023/01/30 01:41:05;;;;;;;0.30;0.30;;;;;;;;;;5030792;28;20231;-91
2023/01/30 01:43:41;;;;;;;0.20;0.20;;;;;;;;;;5033313;28;20231;-92
2023/01/30 01:46:10;;;;;;;0.97;0.53;;;;;;;;;;5041116;28;20207;-89
2023/01/30 01:48:46;;;;;;;0.10;0.10;;;;;;;;;;5036829;28;20208;-89
2023/01/30 01:51:19;;;;;;;0.10;0.10;;;;;;;;;;5051124;28;20751;-90
2023/01/30 01:53:47;;;;;;;1.87;1.03;;;;;;;;;;5054005;28;20253;-89
2023/01/30 01:56:20;;;;;;;0.87;0.87;;;;;;;;;;5060781;28;20199;-89
2023/01/30 01:58:51;;;;;;;0.67;0.67;;;;;;;;;;5059534;28;20198;-89
2023/01/30 02:01:20;;;;;;;0.10;0.10;;;;;;;;;;5056824;28;20353;-88
2023/01/30 02:03:54;;;;;;;1.03;0.40;;;;;;;;;;5054618;28;20187;-88
2023/01/30 02:06:23;;;;;;;0.00;0.00;;;;;;;;;;5056995;28;20281;-89
2023/01/30 02:08:53;;;;;;;0.70;0.70;;;;;;;;;;5053136;28;20207;-90
2023/01/30 02:11:32;;;;;;;0.40;0.40;;;;;;;;;;5050985;28;20208;-89
2023/01/30 02:14:02;;;;;;;0.00;0.00;;;;;;;;;;5051587;28;20218;-89
2023/01/30 02:16:34;;;;;;;2.63;0.50;;;;;;;;;;5052112;28;20196;-91
2023/01/30 02:19:08;;;;;;;0.10;0.10;;;;;;;;;;5050605;28;20203;-90
2023/01/30 02:22:00;;;;;;;0.10;0.10;;;;;;;;;;5049842;28;20325;-89
2023/01/30 02:24:44;;;;;;;1.23;0.50;;;;;;;;;;5049217;28;20198;-89
2023/01/30 02:27:24;;;;;;;0.20;0.20;;;;;;;;;;5048766;28;20252;-89
2023/01/30 02:30:09;;;;;;;0.10;0.10;;;;;;;;;;5054692;28;20286;-91
2023/01/30 02:32:46;;;;;;;0.10;0.10;;;;;;;;;;5058023;28;20229;-89
2023/01/30 02:35:19;;;;;;;0.10;0.10;;;;;;;;;;5057352;28;20203;-90
2023/01/30 02:38:03;;;;;;;0.10;0.10;;;;;;;;;;5041054;28;20224;-90
2023/01/30 02:40:37;;;;;;;0.53;0.53;;;;;;;;;;5029758;28;20278;-89
2023/01/30 02:43:11;;;;;;;0.10;0.10;;;;;;;;;;5029715;28;20279;-89
2023/01/30 02:45:44;;;;;;;0.37;0.23;;;;;;;;;;5031544;28;20219;-89
2023/01/30 02:48:17;;;;;;;0.10;0.10;;;;;;;;;;5032904;28;20261;-89
2023/01/30 02:50:50;;;;;;;0.73;0.73;;;;;;;;;;5032916;28;20267;-87
2023/01/30 02:53:20;;;;;;;0.03;0.03;;;;;;;;;;5033307;28;20200;-90
2023/01/30 02:55:48;;;;;;;0.17;0.17;;;;;;;;;;5032898;28;20195;-89
2023/01/30 02:58:19;;;;;;;0.10;0.10;;;;;;;;;;5033516;28;20196;-88
2023/01/30 03:01:02;;;;;;;0.10;0.10;;;;;;;;;;5036570;28;20203;-88
2023/01/30 03:03:39;;;;;;;0.10;0.10;;;;;;;;;;5034065;28;20640;-88
2023/01/30 03:06:14;;;;;;;0.37;0.37;;;;;;;;;;5033414;28;20278;-88
2023/01/30 03:08:47;;;;;;;0.30;0.30;;;;;;;;;;5052058;28;20293;-91
2023/01/30 03:11:23;;;;;;;0.60;0.60;;;;;;;;;;5054045;28;20207;-88
2023/01/30 03:13:55;;;;;;;0.30;0.30;;;;;;;;;;5053475;28;20199;-90
2023/01/30 03:16:31;;;;;;;0.07;0.07;;;;;;;;;;5053435;28;20202;-88
2023/01/30 03:19:05;;;;;;;1.60;0.63;;;;;;;;;;5054281;28;20191;-89
2023/01/30 03:21:37;;;;;;;0.10;0.10;;;;;;;;;;5053622;28;20238;-89
2023/01/30 03:24:08;;;;;;;1.30;0.70;;;;;;;;;;5053836;28;20660;-91
2023/01/30 03:26:38;;;;;;;0.20;0.20;;;;;;;;;;5054008;28;20679;-90
2023/01/30 03:29:09;;;;;;;0.20;0.20;;;;;;;;;;5051747;28;20221;-91
2023/01/30 03:31:38;;;;;;;0.97;0.47;;;;;;;;;;5053541;28;20211;-90
2023/01/30 03:34:10;;;;;;;0.50;0.50;;;;;;;;;;5053399;28;20257;-91
2023/01/30 03:36:40;;;;;;;0.20;0.20;;;;;;;;;;5052812;28;20231;-90
2023/01/30 03:39:09;;;;;;;0.10;0.10;;;;;;;;;;5034565;28;20203;-90
2023/01/30 03:41:39;;;;;;;0.37;0.30;;;;;;;;;;5035093;28;20286;-89
2023/01/30 03:44:13;;;;;;;0.30;0.30;;;;;;;;;;5036318;28;20200;-91
2023/01/30 03:46:41;;;;;;;0.10;0.10;;;;;;;;;;5036428;28;20183;-89
2023/01/30 03:49:13;;;;;;;0.10;0.10;;;;;;;;;;5054885;28;20206;-91
2023/01/30 03:51:52;;;;;;;0.30;0.30;;;;;;;;;;5042895;28;20208;-89
2023/01/30 03:54:21;;;;;;;0.20;0.20;;;;;;;;;;5052373;28;20213;-90
2023/01/30 03:56:51;;;;;;;1.03;0.27;;;;;;;;;;5043996;28;20490;-90
2023/01/30 03:59:25;;;;;;;0.30;0.30;;;;;;;;;;5053225;28;20207;-91
2023/01/30 04:01:58;;;;;;;0.10;0.10;;;;;;;;;;5047903;28;20227;-91
2023/01/30 04:04:35;;;;;;;0.03;0.03;;;;;;;;;;5031966;28;20238;-90
2023/01/30 04:07:05;;;;;;;0.30;0.30;;;;;;;;;;5043792;28;20298;-90
2023/01/30 04:09:33;;;;;;;0.50;0.50;;;;;;;;;;5044478;28;20228;-88
2023/01/30 04:12:05;;;;;;;0.60;0.60;;;;;;;;;;5045616;28;20203;-90
2023/01/30 04:14:51;;;;;;;0.20;0.20;;;;;;;;;;5051774;28;20200;-90
2023/01/30 04:17:23;;;;;;;0.20;0.20;;;;;;;;;;5052858;28;20453;-89
2023/01/30 04:19:52;;;;;;;0.20;0.20;;;;;;;;;;5053353;28;20209;-89
2023/01/30 04:22:20;;;;;;;0.33;0.33;;;;;;;;;;5052454;28;20255;-91
2023/01/30 04:24:48;;;;;;;0.40;0.40;;;;;;;;;;5052094;28;20203;-91
2023/01/30 04:27:18;;;;;;;0.20;0.20;;;;;;;;;;5053747;28;20192;-89
2023/01/30 04:29:46;;;;;;;0.43;0.43;;;;;;;;;;5054073;28;20867;-91
2023/01/30 04:32:14;;;;;;;0.30;0.30;;;;;;;;;;5055607;28;20206;-91
2023/01/30 04:34:43;;;;;;;0.40;0.40;;;;;;;;;;5055700;28;20207;-88
2023/01/30 04:37:17;;;;;;;0.17;0.17;;;;;;;;;;5055734;28;20246;-90
2023/01/30 04:39:45;;;;;;;1.13;1.02;;;;;;;;;;5055834;28;20440;-92
2023/01/30 04:42:13;;;;;;;1.40;0.73;;;;;;;;;;5041263;28;20331;-91
2023/01/30 04:44:40;;;;;;;0.37;0.37;;;;;;;;;;5038847;28;20204;-90
2023/01/30 04:47:21;;;;;;;0.63;0.63;;;;;;;;;;5034718;28;20196;-91
2023/01/30 04:49:54;;;;;;;0.30;0.30;;;;;;;;;;5042996;28;20200;-91
2023/01/30 04:52:23;;;;;;;0.50;0.50;;;;;;;;;;5042869;28;20227;-91
2023/01/30 04:54:51;;;;;;;0.30;0.30;;;;;;;;;;5044995;28;20294;-90
2023/01/30 04:57:19;;;;;;;3.63;0.50;;;;;;;;;;5044045;28;20234;-88
2023/01/30 04:59:48;;;;;;;0.00;0.00;;;;;;;;;;5045879;28;20208;-90
2023/01/30 05:02:18;;;;;;;0.20;0.20;;;;;;;;;;5046108;28;20232;-90
2023/01/30 05:04:49;;;;;;;1.73;1.43;;;;;;;;;;5043680;28;20199;-88
2023/01/30 05:07:20;;;;;;;2.00;1.00;;;;;;;;;;5039491;28;20231;-91
2023/01/30 05:09:53;;;;;;;0.30;0.17;;;;;;;;;;5035908;28;20247;-90
2023/01/30 05:12:23;;;;;;;0.23;0.23;;;;;;;;;;5033261;28;20250;-92
2023/01/30 05:14:54;;;;;;;0.87;0.63;;;;;;;;;;5032699;28;20221;-91
2023/01/30 05:17:25;;;;;;;0.10;0.10;;;;;;;;;;5031393;28;20298;-91
2023/01/30 05:19:53;;;;;;;0.30;0.30;;;;;;;;;;5042130;28;20219;-89
2023/01/30 05:22:29;;;;;;;0.00;0.00;;;;;;;;;;5050113;28;20234;-91
2023/01/30 05:25:09;;;;;;;1.30;0.30;;;;;;;;;;5060195;28;20202;-91
2023/01/30 05:27:37;;;;;;;0.20;0.20;;;;;;;;;;5034161;28;20266;-91
2023/01/30 05:30:07;;;;;;;0.33;0.33;;;;;;;;;;5032448;28;20204;-91
2023/01/30 05:32:41;;;;;;;0.77;0.77;;;;;;;;;;5045621;28;20289;-91
2023/01/30 05:35:12;;;;;;;0.70;0.70;;;;;;;;;;5040295;28;20242;-90
2023/01/30 05:37:41;;;;;;;0.20;0.20;;;;;;;;;;5050248;28;20243;-90
2023/01/30 05:40:12;;;;;;;2.47;0.30;;;;;;;;;;5050488;28;20285;-90
2023/01/30 05:42:43;;;;;;;1.13;0.70;;;;;;;;;;5050266;28;20226;-89
2023/01/30 05:45:19;;;;;;;0.87;0.23;;;;;;;;;;5050605;28;20284;-90
2023/01/30 05:47:56;;;;;;;0.10;0.10;;;;;;;;;;5050540;28;20203;-91
2023/01/30 05:50:25;;;;;;;0.27;0.27;;;;;;;;;;5053592;28;20199;-88
2023/01/30 05:52:56;;;;;;;0.40;0.40;;;;;;;;;;5052164;28;20210;-89
2023/01/30 05:58:29;;;;;;;0.00;0.00;;;;;;;;;;5044237;28;20211;-90
2023/01/30 06:01:11;;;;;;;0.97;0.30;;;;;;;;;;5038092;28;20208;-90
2023/01/30 06:03:39;;;;;;;3.40;1.60;;;;;;;;;;5050331;28;20628;-88
2023/01/30 06:06:12;;;;;;;0.70;0.70;;;;;;;;;;5037679;28;20219;-90
2023/01/30 06:08:43;;;;;;;0.77;0.73;;;;;;;;;;5050772;28;20219;-89
2023/01/30 06:11:15;;;;;;;0.30;0.30;;;;;;;;;;5050549;28;20655;-89
2023/01/30 06:13:45;;;;;;;0.10;0.10;;;;;;;;;;5030491;28;20638;-91
2023/01/30 06:16:16;;;;;;;0.00;0.00;;;;;;;;;;5030278;28;20200;-90
2023/01/30 06:21:31;;;;;;;2.93;1.20;;;;;;;;;;5028084;28;20235;-91
2023/01/30 06:24:01;;;;;;;0.30;0.30;;;;;;;;;;5032705;28;20318;-90
2023/01/30 06:26:30;;;;;;;4.60;0.90;;;;;;;;;;5033053;28;20196;-91
2023/01/30 06:29:00;;;;;;;0.63;0.63;;;;;;;;;;5040295;28;20196;-91
2023/01/30 06:31:34;;;;;;;0.00;0.00;;;;;;;;;;5047016;28;20204;-88
2023/01/30 06:34:10;;;;;;;0.37;0.37;;;;;;;;;;5038879;28;20207;-90
2023/01/30 06:36:45;;;;;;;1.10;0.63;;;;;;;;;;5049947;28;20258;-91
2023/01/30 06:39:21;;;;;;;0.67;0.67;;;;;;;;;;5044383;28;20329;-92
2023/01/30 06:41:51;;;;;;;0.93;0.30;;;;;;;;;;5030109;28;20207;-91
2023/01/30 06:44:25;;;;;;;2.00;1.17;;;;;;;;;;5030091;28;20681;-90
2023/01/30 06:46:56;;;;;;;0.30;0.30;;;;;;;;;;5030405;28;20219;-92
2023/01/30 06:49:26;;;;;;;0.77;0.77;;;;;;;;;;5030004;28;20200;-90
2023/01/30 06:51:57;;;;;;;0.37;0.37;;;;;;;;;;5030618;28;20196;-89
2023/01/30 06:54:26;;;;;;;5.80;1.43;;;;;;;;;;5030666;28;20204;-92
2023/01/30 06:56:57;;;;;;;3.10;0.60;;;;;;;;;;5030710;28;20208;-91
2023/01/30 06:59:30;;;;;;;0.20;0.20;;;;;;;;;;5029540;28;20226;-91
2023/01/30 07:01:58;;;;;;;0.13;0.13;;;;;;;;;;5033897;28;20262;-90
2023/01/30 07:04:27;;;;;;;0.63;0.63;;;;;;;;;;5032245;28;20295;-90
2023/01/30 07:06:56;;;;;;;0.83;0.83;;;;;;;;;;5030646;28;20196;-90
2023/01/30 07:09:36;;;;;;;0.03;0.03;;;;;;;;;;5033652;28;20223;-91
2023/01/30 07:12:14;;;;;;;1.37;1.37;;;;;;;;;;5044780;28;20222;-92
2023/01/30 07:15:00;;;;;;;1.60;0.53;;;;;;;;;;5055919;28;20725;-92
2023/01/30 07:20:18;;;;;;;3.20;0.50;;;;;;;;;;5057552;28;20586;-91
2023/01/30 07:23:01;;;;;;;4.03;0.50;;;;;;;;;;5059057;28;20554;-90
2023/01/30 07:25:33;;;;;;;0.17;0.17;;;;;;;;;;5053839;28;20294;-90
2023/01/30 07:28:03;;;;;;;3.40;0.97;;;;;;;;;;5048795;28;20200;-91
2023/01/30 07:33:26;;;;;;;1.50;0.63;;;;;;;;;;5068517;28;20313;-89
2023/01/30 07:35:54;;;;;;;1.50;1.43;;;;;;;;;;5051562;28;20239;-91
2023/01/30 07:38:23;;;;;;;1.90;0.80;;;;;;;;;;5048720;28;20658;-89
2023/01/30 07:41:00;;;;;;;0.83;0.83;;;;;;;;;;5051605;28;20329;-91
2023/01/30 07:43:33;;;;;;;0.70;0.67;;;;;;;;;;5052726;28;20241;-90
2023/01/30 07:46:09;;;;;;;0.23;0.23;;;;;;;;;;5059047;28;20243;-91
2023/01/30 07:48:46;;;;;;;0.20;0.20;;;;;;;;;;5062192;28;20195;-91
2023/01/30 07:51:19;;;;;;;0.40;0.40;;;;;;;;;;5059428;28;20675;-91
2023/01/30 07:53:52;;;;;;;0.40;0.40;;;;;;;;;;5059442;28;20199;-90
2023/01/30 07:56:26;;;;;;;0.20;0.20;;;;;;;;;;5062455;28;20196;-88
2023/01/30 07:59:12;;;;;;;0.70;0.70;;;;;;;;;;5046005;28;20226;-89
2023/01/30 08:01:48;;;;;;;0.67;0.67;;;;;;;;;;5063902;28;20195;-90
2023/01/30 08:04:17;;;;;;;1.00;0.90;;;;;;;;;;5057625;28;20318;-90
2023/01/30 08:06:50;;;;;;;0.50;0.50;;;;;;;;;;5054947;28;20231;-91
2023/01/30 08:09:18;;;;;;;0.73;0.73;;;;;;;;;;5056977;28;20219;-91
2023/01/30 08:11:55;;;;;;;0.90;0.90;;;;;;;;;;5053823;28;20226;-91
2023/01/30 08:14:28;;;;;;;0.23;0.23;;;;;;;;;;5055695;28;20234;-93
2023/01/30 08:17:02;;;;;;;0.27;0.27;;;;;;;;;;5060374;28;20219;-91
2023/01/30 08:19:57;;;;;;;0.57;0.57;;;;;;;;;;5059396;28;20276;-92
2023/01/30 08:22:30;;;;;;;1.43;0.77;;;;;;;;;;5057898;28;20298;-92
2023/01/30 08:25:06;;;;;;;0.60;0.40;;;;;;;;;;5068835;28;20229;-91
2023/01/30 08:27:36;;;;;;;0.33;0.33;;;;;;;;;;5072248;28;20238;-92
2023/01/30 08:30:05;;;;;;;2.10;0.50;;;;;;;;;;5063329;28;20249;-91
2023/01/30 08:32:49;;;;;;;1.50;1.40;;;;;;;;;;5064763;28;20223;-91
2023/01/30 08:35:25;;;;;;;0.37;0.37;;;;;;;;;;5059246;28;20227;-92
2023/01/30 08:37:53;;;;;;;1.57;0.67;;;;;;;;;;5063630;28;20454;-91
2023/01/30 08:40:25;;;;;;;0.93;0.87;;;;;;;;;;5058624;28;20239;-90
2023/01/30 08:42:58;;;;;;;1.03;1.03;;;;;;;;;;5054903;28;20696;-91
2023/01/30 08:45:27;;;;;;;0.10;0.10;;;;;;;;;;5051652;28;20223;-93
2023/01/30 08:47:58;;;;;;;2.20;0.47;;;;;;;;;;5053386;28;20223;-92
2023/01/30 08:50:33;;;;;;;0.17;0.17;;;;;;;;;;5052645;28;20237;-93
2023/01/30 08:53:07;;;;;;;0.33;0.33;;;;;;;;;;5051691;28;20321;-92
2023/01/30 08:55:41;;;;;;;0.10;0.10;;;;;;;;;;5053348;28;20649;-93
2023/01/30 08:58:20;;;;;;;0.97;0.43;;;;;;;;;;5054432;28;20219;-91
2023/01/30 09:00:59;;;;;;;0.87;0.77;;;;;;;;;;5053212;28;20222;-90
2023/01/30 09:03:35;;;;;;;0.37;0.37;;;;;;;;;;5053616;28;20239;-90
2023/01/30 09:06:37;;;;;;;0.23;0.23;;;;;;;;;;5051287;28;20229;-90
2023/01/30 09:09:09;;;;;;;1.60;0.67;;;;;;;;;;5053024;28;20241;-90
2023/01/30 09:11:50;;;;;;;0.70;0.70;;;;;;;;;;5052323;28;20715;-91
2023/01/30 09:14:23;;;;;;;0.53;0.53;;;;;;;;;;5052237;28;20749;-90
2023/01/30 09:16:55;;;;;;;0.47;0.47;;;;;;;;;;5051537;28;20231;-90
2023/01/30 09:19:24;;;;;;;0.43;0.33;;;;;;;;;;5052461;28;20219;-91
2023/01/30 09:22:11;;;;;;;0.90;0.60;;;;;;;;;;5049942;28;20281;-92
2023/01/30 09:24:54;;;;;;;0.20;0.20;;;;;;;;;;4995385;28;20312;-90
2023/01/30 09:27:35;;;;;;;0.63;0.63;;;;;;;;;;5000379;28;20271;-91
2023/01/30 09:30:33;;;;;;;1.03;0.70;;;;;;;;;;5056552;28;20691;-90
2023/01/30 09:35:50;;;;;;;0.87;0.87;;;;;;;;;;5053934;28;20223;-90
2023/01/30 09:41:31;;;;;;;0.60;0.20;;;;;;;;;;5049247;28;20235;-90
2023/01/30 09:44:29;;;;;;;1.03;0.70;;;;;;;;;;5053160;28;20247;-91
2023/01/30 09:47:12;;;;;;;0.33;0.33;;;;;;;;;;5051483;28;20239;-92
2023/01/30 09:49:51;;;;;;;0.60;0.40;;;;;;;;;;5058077;28;20219;-91
2023/01/30 09:52:30;;;;;;;0.00;0.00;;;;;;;;;;5054208;28;20230;-92
2023/01/30 09:55:10;;;;;;;0.67;0.67;;;;;;;;;;5059934;28;20282;-88
2023/01/30 09:57:42;;;;;;;1.03;0.93;;;;;;;;;;5056204;28;20288;-90
2023/01/30 10:03:08;;;;;;;0.20;0.20;;;;;;;;;;5048786;28;20711;-90
2023/01/30 10:05:41;;;;;;;0.20;0.20;;;;;;;;;;5050236;28;20230;-90
2023/01/30 10:08:49;;;;;;;0.20;0.20;;;;;;;;;;5049695;28;20249;-91
2023/01/30 10:14:43;;;;;;;0.30;0.30;;;;;;;;;;4985603;28;20795;-93
2023/01/30 10:17:25;;;;;;;0.63;0.57;;;;;;;;;;5048543;28;20223;-92
2023/01/30 10:20:06;;;;;;;1.17;0.80;;;;;;;;;;5053011;28;20250;-92
2023/01/30 10:22:49;;;;;;;0.30;0.30;;;;;;;;;;5051972;28;20227;-94
2023/01/30 10:25:31;;;;;;;0.20;0.20;;;;;;;;;;5051812;28;20254;-92
2023/01/30 10:28:13;;;;;;;6.00;0.27;;;;;;;;;;5051191;28;20223;-92
2023/01/30 10:30:50;;;;;;;4.13;0.73;;;;;;;;;;5052292;28;20226;-94
2023/01/30 10:33:23;;;;;;;0.30;0.30;;;;;;;;;;5032803;28;20230;-92
2023/01/30 10:36:07;;;;;;;0.40;0.40;;;;;;;;;;5052645;28;20719;-93
2023/01/30 10:38:40;;;;;;;0.10;0.10;;;;;;;;;;5050199;28;20241;-94
2023/01/30 10:41:16;;;;;;;0.30;0.30;;;;;;;;;;5053518;28;20219;-93
2023/01/30 10:43:56;;;;;;;0.50;0.50;;;;;;;;;;5055874;28;20233;-91
2023/01/30 10:49:18;;;;;;;0.97;0.60;;;;;;;;;;5049101;28;20241;-91
2023/01/30 10:51:50;;;;;;;0.67;0.67;;;;;;;;;;5048251;28;20215;-91
2023/01/30 10:54:23;;;;;;;0.23;0.23;;;;;;;;;;5049689;28;20226;-89
2023/01/30 10:56:52;;;;;;;0.57;0.57;;;;;;;;;;5052431;28;20557;-89
2023/01/30 10:59:37;;;;;;;1.60;1.43;;;;;;;;;;5056171;28;20281;-88
2023/01/30 11:02:12;;;;;;;0.50;0.50;;;;;;;;;;5049391;28;20230;-89
2023/01/30 11:04:53;;;;;;;0.40;0.40;;;;;;;;;;5049256;28;20234;-93
2023/01/30 11:07:24;;;;;;;0.20;0.17;;;;;;;;;;5049366;28;20320;-89
2023/01/30 11:09:53;;;;;;;0.37;0.27;;;;;;;;;;5047394;28;20230;-90
2023/01/30 11:12:26;;;;;;;0.90;0.57;;;;;;;;;;5050559;28;20788;-91
2023/01/30 11:14:55;;;;;;;0.60;0.60;;;;;;;;;;5052055;28;20348;-91
2023/01/30 11:17:29;;;;;;;0.93;0.93;;;;;;;;;;5052642;28;20223;-90
2023/01/30 11:20:03;;;;;;;0.33;0.33;;;;;;;;;;5051640;28;20348;-91
2023/01/30 11:22:33;;;;;;;1.67;1.17;;;;;;;;;;5052773;28;20222;-90
2023/01/30 11:25:04;;;;;;;0.17;0.17;;;;;;;;;;5051692;28;20231;-90
2023/01/30 11:27:36;;;;;;;1.30;1.20;;;;;;;;;;5053920;28;20707;-92
2023/01/30 11:30:16;;;;;;;0.40;0.40;;;;;;;;;;5052906;28;20258;-92
2023/01/30 11:32:48;;;;;;;1.53;0.97;;;;;;;;;;5052630;28;20238;-92
2023/01/30 11:35:45;;;;;;;0.10;0.10;;;;;;;;;;5054832;28;20302;-88
2023/01/30 11:38:21;;;;;;;0.73;0.73;;;;;;;;;;5053991;28;20245;-91
2023/01/30 11:40:49;;;;;;;1.40;0.83;;;;;;;;;;5053729;28;20229;-90
2023/01/30 11:43:17;;;;;;;0.20;0.20;;;;;;;;;;5054144;28;20230;-90
2023/01/30 11:45:51;;;;;;;0.50;0.50;;;;;;;;;;5052656;28;20231;-91
2023/01/30 11:48:25;;;;;;;0.43;0.43;;;;;;;;;;5054276;28;20223;-91
2023/01/30 11:51:03;;;;;;;1.93;0.60;;;;;;;;;;5053729;28;20253;-90
2023/01/30 11:53:37;;;;;;;0.60;0.60;;;;;;;;;;5035639;28;20714;-90
2023/01/30 11:56:08;;;;;;;1.23;1.13;;;;;;;;;;5052735;28;20280;-88
2023/01/30 11:58:50;;;;;;;0.47;0.47;;;;;;;;;;5056185;28;20219;-88
2023/01/30 12:01:26;;;;;;;4.07;0.40;;;;;;;;;;5059330;28;20299;-89
2023/01/30 12:04:05;;;;;;;0.20;0.20;;;;;;;;;;5051522;28;20396;-90
2023/01/30 12:06:37;;;;;;;0.53;0.53;;;;;;;;;;5029135;28;20223;-89
2023/01/30 12:09:30;;;;;;;1.30;1.07;;;;;;;;;;5034507;28;20239;-90
2023/01/30 12:12:30;;;;;;;0.63;0.47;;;;;;;;;;5037129;28;20282;-91
2023/01/30 12:15:05;;;;;;;0.50;0.50;;;;;;;;;;5041485;28;20228;-90
2023/01/30 12:17:36;;;;;;;3.00;0.93;;;;;;;;;;5034238;28;20739;-89
2023/01/30 12:20:13;;;;;;;0.93;0.70;;;;;;;;;;5030016;28;20227;-90
2023/01/30 12:22:51;;;;;;;0.20;0.20;;;;;;;;;;5034836;28;20224;-91
2023/01/30 12:25:25;;;;;;;0.20;0.20;;;;;;;;;;5033064;28;20250;-91
2023/01/30 12:27:58;;;;;;;0.53;0.53;;;;;;;;;;5033600;28;20227;-90
2023/01/30 12:30:35;;;;;;;0.40;0.30;;;;;;;;;;5031903;28;20705;-91
2023/01/30 12:33:05;;;;;;;1.70;1.17;;;;;;;;;;5033033;28;20279;-90
2023/01/30 12:35:42;;;;;;;1.33;1.03;;;;;;;;;;5044340;28;20798;-92
2023/01/30 12:38:18;;;;;;;2.83;1.27;;;;;;;;;;5050550;28;20247;-91
2023/01/30 12:41:00;;;;;;;2.53;0.57;;;;;;;;;;5049975;28;20223;-90
2023/01/30 12:43:49;;;;;;;3.30;1.33;;;;;;;;;;5052129;28;20238;-90
2023/01/30 12:46:32;;;;;;;0.20;0.20;;;;;;;;;;5053004;28;20763;-92
2023/01/30 12:49:04;;;;;;;0.20;0.20;;;;;;;;;;5052551;28;20247;-90
2023/01/30 12:51:39;;;;;;;0.30;0.30;;;;;;;;;;5051578;28;20281;-92
2023/01/30 12:54:12;;;;;;;7.70;2.10;;;;;;;;;;5049938;28;20249;-91
2023/01/30 12:56:53;;;;;;;1.20;0.43;;;;;;;;;;5059417;28;20254;-90
2023/01/30 12:59:23;;;;;;;0.10;0.10;;;;;;;;;;5052056;28;20225;-90
2023/01/30 13:02:07;;;;;;;0.73;0.73;;;;;;;;;;5053375;28;20241;-89
2023/01/30 13:04:42;;;;;;;0.50;0.50;;;;;;;;;;5053197;28;20227;-90
2023/01/30 13:07:17;;;;;;;0.97;0.83;;;;;;;;;;5050774;28;20304;-90
2023/01/30 13:09:54;;;;;;;2.27;1.17;;;;;;;;;;5052715;28;20253;-90
2023/01/30 13:12:41;;;;;;;0.47;0.47;;;;;;;;;;5054780;28;20242;-92
2023/01/30 13:15:26;;;;;;;0.40;0.40;;;;;;;;;;5067334;28;20253;-90
2023/01/30 13:18:15;;;;;;;5.93;0.47;;;;;;;;;;5057924;28;20229;-86
2023/01/30 13:20:52;;;;;;;0.23;0.23;;;;;;;;;;5064549;28;20223;-91
2023/01/30 13:23:29;;;;;;;0.90;0.90;;;;;;;;;;5064739;28;20249;-92
2023/01/30 13:26:07;;;;;;;0.60;0.60;;;;;;;;;;5056465;28;20289;-91
2023/01/30 13:28:39;;;;;;;1.70;0.83;;;;;;;;;;5054592;28;20219;-90
2023/01/30 13:31:09;;;;;;;3.03;1.37;;;;;;;;;;5053533;28;20223;-91
2023/01/30 13:33:50;;;;;;;0.23;0.23;;;;;;;;;;5053249;28;20288;-92
2023/01/30 13:36:28;;;;;;;0.77;0.70;;;;;;;;;;5032629;28;20232;-93
2023/01/30 13:39:00;;;;;;;0.77;0.77;;;;;;;;;;5029327;28;20231;-91
2023/01/30 13:41:34;;;;;;;0.20;0.20;;;;;;;;;;5032782;28;20274;-90
2023/01/30 13:44:19;;;;;;;1.43;1.43;;;;;;;;;;5029764;28;20231;-91
2023/01/30 13:46:54;;;;;;;0.33;0.33;;;;;;;;;;5033108;28;20227;-93
2023/01/30 13:49:39;;;;;;;0.70;0.70;;;;;;;;;;5040676;28;20219;-90
2023/01/30 13:52:11;;;;;;;0.33;0.33;;;;;;;;;;5051252;28;20215;-90
2023/01/30 13:54:52;;;;;;;0.77;0.77;;;;;;;;;;5048570;28;20322;-90
2023/01/30 13:57:27;;;;;;;0.50;0.50;;;;;;;;;;5050920;28;20230;-90
2023/01/30 14:00:11;;;;;;;0.30;0.30;;;;;;;;;;5051337;28;20277;-92
2023/01/30 14:03:12;;;;;;;0.10;0.10;;;;;;;;;;5053944;28;20227;-92
2023/01/30 14:06:06;;;;;;;0.63;0.63;;;;;;;;;;5049547;28;20246;-92
2023/01/30 14:08:50;;;;;;;0.23;0.23;;;;;;;;;;5050201;28;20561;-89
2023/01/30 14:11:38;;;;;;;1.20;0.93;;;;;;;;;;5050738;28;20223;-91
2023/01/30 14:14:22;;;;;;;0.23;0.23;;;;;;;;;;5049910;28;20632;-92
2023/01/30 14:17:00;;;;;;;1.90;0.43;;;;;;;;;;5049963;28;20226;-91
2023/01/30 14:19:42;;;;;;;2.30;0.47;;;;;;;;;;5051718;28;20312;-92
2023/01/30 14:22:34;;;;;;;0.20;0.20;;;;;;;;;;5056703;28;20242;-91
2023/01/30 14:25:23;;;;;;;0.57;0.57;;;;;;;;;;5057130;28;20269;-91
2023/01/30 14:28:23;;;;;;;0.00;0.00;;;;;;;;;;5052381;28;20222;-89
2023/01/30 14:30:54;;;;;;;1.33;0.97;;;;;;;;;;5050908;28;20276;-91
2023/01/30 14:33:38;;;;;;;2.60;0.67;;;;;;;;;;5057301;28;20215;-91
2023/01/30 14:36:28;;;;;;;1.90;0.67;;;;;;;;;;5060739;28;20230;-92
2023/01/30 14:39:21;;;;;;;0.87;0.57;;;;;;;;;;5060279;28;20695;-90
2023/01/30 14:42:16;;;;;;;0.87;0.87;;;;;;;;;;5070459;28;20283;-91
2023/01/30 14:45:05;;;;;;;2.60;1.30;;;;;;;;;;5060264;28;20242;-91
2023/01/30 14:47:43;;;;;;;0.97;0.40;;;;;;;;;;5057120;28;20238;-92
2023/01/30 14:50:39;;;;;;;1.57;1.57;;;;;;;;;;5055137;28;20306;-92
2023/01/30 14:53:33;;;;;;;0.10;0.10;;;;;;;;;;5053244;28;20219;-92
2023/01/30 14:56:09;;;;;;;0.00;0.00;;;;;;;;;;5049485;28;20222;-93
2023/01/30 14:58:40;;;;;;;0.63;0.50;;;;;;;;;;5054464;28;20575;-93
2023/01/30 15:01:12;;;;;;;1.27;1.00;;;;;;;;;;5060311;28;20258;-91
2023/01/30 15:03:47;;;;;;;1.00;1.00;;;;;;;;;;5062487;28;20231;-89
2023/01/30 15:06:18;;;;;;;0.33;0.33;;;;;;;;;;5043241;28;20235;-90
2023/01/30 15:08:49;;;;;;;0.20;0.17;;;;;;;;;;5042908;28;20700;-92
2023/01/30 15:11:25;;;;;;;0.50;0.50;;;;;;;;;;5035125;28;20227;-90
2023/01/30 15:14:00;;;;;;;0.63;0.63;;;;;;;;;;5030348;28;20302;-90
2023/01/30 15:16:44;;;;;;;0.17;0.17;;;;;;;;;;5029128;28;20699;-93
2023/01/30 15:19:32;;;;;;;0.43;0.43;;;;;;;;;;5033459;28;20278;-92
2023/01/30 15:22:13;;;;;;;0.30;0.30;;;;;;;;;;5036980;28;20234;-93
2023/01/30 15:24:52;;;;;;;0.10;0.10;;;;;;;;;;5038971;28;20301;-90
2023/01/30 15:27:32;;;;;;;2.70;1.97;;;;;;;;;;5038121;28;20250;-93
2023/01/30 15:30:33;;;;;;;1.33;1.33;;;;;;;;;;5037366;28;20211;-92
2023/01/30 15:33:26;;;;;;;0.10;0.10;;;;;;;;;;5043979;28;20220;-90
2023/01/30 15:36:01;;;;;;;1.90;1.77;;;;;;;;;;5061839;28;20273;-90
2023/01/30 15:38:32;;;;;;;0.90;0.87;;;;;;;;;;5052348;28;20223;-93
2023/01/30 15:41:03;;;;;;;0.50;0.50;;;;;;;;;;5050604;28;20216;-93
2023/01/30 15:43:49;;;;;;;1.30;0.93;;;;;;;;;;5050588;28;20235;-93
2023/01/30 15:46:20;;;;;;;7.20;1.07;;;;;;;;;;5050567;28;20258;-93
2023/01/30 15:49:15;;;;;;;0.53;0.53;;;;;;;;;;5052508;28;20223;-91
2023/01/30 15:52:04;;;;;;;1.60;0.53;;;;;;;;;;5041047;28;20235;-93
2023/01/30 15:54:41;;;;;;;0.00;0.00;;;;;;;;;;5050808;28;20215;-92
2023/01/30 15:57:18;;;;;;;0.23;0.20;;;;;;;;;;5050405;28;20781;-93
2023/01/30 15:59:49;;;;;;;1.53;1.53;;;;;;;;;;5053711;28;20202;-93
2023/01/30 16:02:27;;;;;;;0.30;0.30;;;;;;;;;;5051302;28;20227;-93
2023/01/30 16:05:18;;;;;;;2.30;0.97;;;;;;;;;;5050882;28;20219;-92
2023/01/30 16:08:12;;;;;;;0.60;0.60;;;;;;;;;;5055143;28;20206;-94
2023/01/30 16:10:49;;;;;;;0.97;0.97;;;;;;;;;;5059532;28;20223;-92